sensor_id;sensor_type;location;lat;lon;timestamp;P1;P2;P0
40277;PMS7003;25990;52.768;16.930;2024-01-16T00:00:31;3;0;0
40277;PMS7003;25990;52.768;16.930;2024-01-16T00:02:53;0;0;0
40277;PMS7003;25990;52.768;16.930;2024-01-16T00:05:15;0;0;0
40277;PMS7003;25990;52.768;16.930;2024-01-16T00:07:38;2;0;0
40277;PMS7003;25990;52.768;16.930;2024-01-16T00:10:00;0;0;0
40277;PMS7003;25990;52.768;16.930;2024-01-16T00:12:22;1;0;0
40277;PMS7003;25990;52.768;16.930;2024-01-16T00:14:45;0;0;0
40277;PMS7003;25990;52.768;16.930;2024-01-16T00:17:07;0;0;0
40277;PMS7003;25990;52.768;16.930;2024-01-16T00:19:29;0;0;0
40277;PMS7003;25990;52.768;16.930;2024-01-16T00:21:52;0;0;0
40277;PMS7003;25990;52.768;16.930;2024-01-16T00:24:14;0;0;0
40277;PMS7003;25990;52.768;16.930;2024-01-16T00:26:39;0;0;0
40277;PMS7003;25990;52.768;16.930;2024-01-16T00:29:02;0;0;0
40277;PMS7003;25990;52.768;16.930;2024-01-16T00:31:24;0;0;0
40277;PMS7003;25990;52.768;16.930;2024-01-16T00:33:46;1;0;0
40277;PMS7003;25990;52.768;16.930;2024-01-16T00:36:09;0;0;0
40277;PMS7003;25990;52.768;16.930;2024-01-16T00:38:34;5;0;0
40277;PMS7003;25990;52.768;16.930;2024-01-16T00:40:53;0;0;0
40277;PMS7003;25990;52.768;16.930;2024-01-16T00:43:15;0;0;0
40277;PMS7003;25990;52.768;16.930;2024-01-16T00:45:38;0;0;0
40277;PMS7003;25990;52.768;16.930;2024-01-16T00:48:03;0;0;0
40277;PMS7003;25990;52.768;16.930;2024-01-16T00:50:25;0;0;0
40277;PMS7003;25990;52.768;16.930;2024-01-16T00:52:50;0;0;0
40277;PMS7003;25990;52.768;16.930;2024-01-16T00:55:13;1;0;0
40277;PMS7003;25990;52.768;16.930;2024-01-16T00:57:35;0;0;0
40277;PMS7003;25990;52.768;16.930;2024-01-16T00:59:57;0;0;0
40277;PMS7003;25990;52.768;16.930;2024-01-16T01:02:20;0;0;0
40277;PMS7003;25990;52.768;16.930;2024-01-16T01:04:44;0;0;0
40277;PMS7003;25990;52.768;16.930;2024-01-16T01:07:07;0;0;0
40277;PMS7003;25990;52.768;16.930;2024-01-16T01:09:29;0;0;0
40277;PMS7003;25990;52.768;16.930;2024-01-16T01:11:51;0;0;0
40277;PMS7003;25990;52.768;16.930;2024-01-16T01:14:16;0;0;0
40277;PMS7003;25990;52.768;16.930;2024-01-16T01:16:41;0;0;0
40277;PMS7003;25990;52.768;16.930;2024-01-16T01:19:03;0;0;0
40277;PMS7003;25990;52.768;16.930;2024-01-16T01:21:26;1;0;0
40277;PMS7003;25990;52.768;16.930;2024-01-16T01:23:48;0;0;0
40277;PMS7003;25990;52.768;16.930;2024-01-16T01:26:10;0;0;0
40277;PMS7003;25990;52.768;16.930;2024-01-16T01:28:33;1;0;0
40277;PMS7003;25990;52.768;16.930;2024-01-16T01:30:55;0;0;0
40277;PMS7003;25990;52.768;16.930;2024-01-16T01:33:20;0;0;0
40277;PMS7003;25990;52.768;16.930;2024-01-16T01:35:45;0;0;0
40277;PMS7003;25990;52.768;16.930;2024-01-16T01:38:10;0;0;0
40277;PMS7003;25990;52.768;16.930;2024-01-16T01:40:33;0;0;0
40277;PMS7003;25990;52.768;16.930;2024-01-16T01:42:58;0;0;0
40277;PMS7003;25990;52.768;16.930;2024-01-16T01:45:20;0;0;0
40277;PMS7003;25990;52.768;16.930;2024-01-16T01:47:43;0;0;0
40277;PMS7003;25990;52.768;16.930;2024-01-16T01:50:06;0;0;0
40277;PMS7003;25990;52.768;16.930;2024-01-16T01:52:27;0;0;0
40277;PMS7003;25990;52.768;16.930;2024-01-16T01:54:52;0;0;0
40277;PMS7003;25990;52.768;16.930;2024-01-16T01:57:15;0;0;0
40277;PMS7003;25990;52.768;16.930;2024-01-16T01:59:37;0;0;0
40277;PMS7003;25990;52.768;16.930;2024-01-16T02:02:02;3;0;0
40277;PMS7003;25990;52.768;16.930;2024-01-16T02:04:28;0;0;0
40277;PMS7003;25990;52.768;16.930;2024-01-16T02:06:50;0;0;0
40277;PMS7003;25990;52.768;16.930;2024-01-16T02:09:12;0;0;0
40277;PMS7003;25990;52.768;16.930;2024-01-16T02:11:34;0;0;0
40277;PMS7003;25990;52.768;16.930;2024-01-16T02:13:57;0;0;0
40277;PMS7003;25990;52.768;16.930;2024-01-16T02:16:20;0;0;0
40277;PMS7003;25990;52.768;16.930;2024-01-16T02:18:42;0;0;0
40277;PMS7003;25990;52.768;16.930;2024-01-16T02:21:04;0;0;0
40277;PMS7003;25990;52.768;16.930;2024-01-16T02:23:27;0;0;0
40277;PMS7003;25990;52.768;16.930;2024-01-16T02:25:49;0;0;0
40277;PMS7003;25990;52.768;16.930;2024-01-16T02:28:11;0;0;0
40277;PMS7003;25990;52.768;16.930;2024-01-16T02:30:34;0;0;0
40277;PMS7003;25990;52.768;16.930;2024-01-16T02:32:56;5;0;0
40277;PMS7003;25990;52.768;16.930;2024-01-16T02:35:19;0;0;0
40277;PMS7003;25990;52.768;16.930;2024-01-16T02:37:41;0;0;0
40277;PMS7003;25990;52.768;16.930;2024-01-16T02:40:04;0;0;0
40277;PMS7003;25990;52.768;16.930;2024-01-16T02:42:26;0;0;0
40277;PMS7003;25990;52.768;16.930;2024-01-16T02:44:48;0;0;0
40277;PMS7003;25990;52.768;16.930;2024-01-16T02:47:13;0;0;0
40277;PMS7003;25990;52.768;16.930;2024-01-16T02:49:36;0;0;0
40277;PMS7003;25990;52.768;16.930;2024-01-16T02:51:58;1;0;0
40277;PMS7003;25990;52.768;16.930;2024-01-16T02:54:20;1;0;0
40277;PMS7003;25990;52.768;16.930;2024-01-16T02:56:43;0;0;0
40277;PMS7003;25990;52.768;16.930;2024-01-16T02:59:05;3;2;0
40277;PMS7003;25990;52.768;16.930;2024-01-16T03:01:27;0;0;0
40277;PMS7003;25990;52.768;16.930;2024-01-16T03:03:51;2;1;0
40277;PMS7003;25990;52.768;16.930;2024-01-16T03:08:37;1;0;0
40277;PMS7003;25990;52.768;16.930;2024-01-16T03:11:00;0;0;0
40277;PMS7003;25990;52.768;16.930;2024-01-16T03:13:23;1;0;0
40277;PMS7003;25990;52.768;16.930;2024-01-16T03:15:45;0;0;0
40277;PMS7003;25990;52.768;16.930;2024-01-16T03:18:10;0;0;0
40277;PMS7003;25990;52.768;16.930;2024-01-16T03:20:32;3;0;0
40277;PMS7003;25990;52.768;16.930;2024-01-16T03:22:57;0;0;0
40277;PMS7003;25990;52.768;16.930;2024-01-16T03:25:20;0;0;0
40277;PMS7003;25990;52.768;16.930;2024-01-16T03:27:42;0;0;0
40277;PMS7003;25990;52.768;16.930;2024-01-16T03:30:05;1;1;0
40277;PMS7003;25990;52.768;16.930;2024-01-16T03:32:27;1;0;0
40277;PMS7003;25990;52.768;16.930;2024-01-16T03:34:50;2;0;0
40277;PMS7003;25990;52.768;16.930;2024-01-16T03:37:12;2;0;0
40277;PMS7003;25990;52.768;16.930;2024-01-16T03:39:35;1;0;0
40277;PMS7003;25990;52.768;16.930;2024-01-16T03:41:57;0;0;0
40277;PMS7003;25990;52.768;16.930;2024-01-16T03:44:20;1;0;0
40277;PMS7003;25990;52.768;16.930;2024-01-16T03:46:42;1;0;0
40277;PMS7003;25990;52.768;16.930;2024-01-16T03:49:04;0;0;0
40277;PMS7003;25990;52.768;16.930;2024-01-16T03:51:27;0;0;0
40277;PMS7003;25990;52.768;16.930;2024-01-16T03:53:49;1;0;0
40277;PMS7003;25990;52.768;16.930;2024-01-16T03:56:11;1;0;0
40277;PMS7003;25990;52.768;16.930;2024-01-16T03:58:36;0;0;0
40277;PMS7003;25990;52.768;16.930;2024-01-16T04:00:59;0;0;0
40277;PMS7003;25990;52.768;16.930;2024-01-16T04:03:24;0;0;0
40277;PMS7003;25990;52.768;16.930;2024-01-16T04:05:47;3;1;0
40277;PMS7003;25990;52.768;16.930;2024-01-16T04:08:08;0;0;0
40277;PMS7003;25990;52.768;16.930;2024-01-16T04:10:31;4;1;1
40277;PMS7003;25990;52.768;16.930;2024-01-16T04:12:54;1;0;0
40277;PMS7003;25990;52.768;16.930;2024-01-16T04:15:16;5;0;0
40277;PMS7003;25990;52.768;16.930;2024-01-16T04:17:38;3;0;0
40277;PMS7003;25990;52.768;16.930;2024-01-16T04:20:01;1;1;0
40277;PMS7003;25990;52.768;16.930;2024-01-16T04:22:23;5;1;0
40277;PMS7003;25990;52.768;16.930;2024-01-16T04:24:46;0;0;0
40277;PMS7003;25990;52.768;16.930;2024-01-16T04:27:09;0;0;0
40277;PMS7003;25990;52.768;16.930;2024-01-16T04:29:30;2;1;1
40277;PMS7003;25990;52.768;16.930;2024-01-16T04:31:53;0;0;0
40277;PMS7003;25990;52.768;16.930;2024-01-16T04:34:15;2;1;0
40277;PMS7003;25990;52.768;16.930;2024-01-16T04:36:37;2;0;0
40277;PMS7003;25990;52.768;16.930;2024-01-16T04:39:00;3;1;1
40277;PMS7003;25990;52.768;16.930;2024-01-16T04:41:22;1;0;0
40277;PMS7003;25990;52.768;16.930;2024-01-16T04:43:44;2;1;1
40277;PMS7003;25990;52.768;16.930;2024-01-16T04:46:07;0;0;0
40277;PMS7003;25990;52.768;16.930;2024-01-16T04:48:29;3;0;0
40277;PMS7003;25990;52.768;16.930;2024-01-16T04:50:52;2;0;0
40277;PMS7003;25990;52.768;16.930;2024-01-16T04:53:14;2;1;0
40277;PMS7003;25990;52.768;16.930;2024-01-16T04:55:36;3;2;1
40277;PMS7003;25990;52.768;16.930;2024-01-16T04:57:59;0;0;0
40277;PMS7003;25990;52.768;16.930;2024-01-16T05:00:21;2;0;0
40277;PMS7003;25990;52.768;16.930;2024-01-16T05:02:43;0;0;0
40277;PMS7003;25990;52.768;16.930;2024-01-16T05:05:06;2;1;0
40277;PMS7003;25990;52.768;16.930;2024-01-16T05:07:29;2;0;0
40277;PMS7003;25990;52.768;16.930;2024-01-16T05:09:53;2;0;0
40277;PMS7003;25990;52.768;16.930;2024-01-16T05:12:13;0;0;0
40277;PMS7003;25990;52.768;16.930;2024-01-16T05:14:35;1;1;1
40277;PMS7003;25990;52.768;16.930;2024-01-16T05:16:58;1;0;0
40277;PMS7003;25990;52.768;16.930;2024-01-16T05:19:20;1;1;0
40277;PMS7003;25990;52.768;16.930;2024-01-16T05:21:42;1;0;0
40277;PMS7003;25990;52.768;16.930;2024-01-16T05:24:05;1;0;0
40277;PMS7003;25990;52.768;16.930;2024-01-16T05:26:27;1;1;0
40277;PMS7003;25990;52.768;16.930;2024-01-16T05:28:50;1;0;0
40277;PMS7003;25990;52.768;16.930;2024-01-16T05:31:12;2;0;0
40277;PMS7003;25990;52.768;16.930;2024-01-16T05:33:34;0;0;0
40277;PMS7003;25990;52.768;16.930;2024-01-16T05:35:57;3;1;0
40277;PMS7003;25990;52.768;16.930;2024-01-16T05:38:19;1;0;0
40277;PMS7003;25990;52.768;16.930;2024-01-16T05:40:42;2;0;0
40277;PMS7003;25990;52.768;16.930;2024-01-16T05:43:05;2;0;0
40277;PMS7003;25990;52.768;16.930;2024-01-16T05:45:27;1;0;0
40277;PMS7003;25990;52.768;16.930;2024-01-16T05:47:49;0;0;0
40277;PMS7003;25990;52.768;16.930;2024-01-16T05:50:11;2;2;0
40277;PMS7003;25990;52.768;16.930;2024-01-16T05:52:35;2;2;0
40277;PMS7003;25990;52.768;16.930;2024-01-16T05:54:57;0;0;0
40277;PMS7003;25990;52.768;16.930;2024-01-16T05:57:19;0;0;0
40277;PMS7003;25990;52.768;16.930;2024-01-16T05:59:42;2;0;0
40277;PMS7003;25990;52.768;16.930;2024-01-16T06:02:04;2;1;0
40277;PMS7003;25990;52.768;16.930;2024-01-16T06:04:26;0;0;0
40277;PMS7003;25990;52.768;16.930;2024-01-16T06:06:49;1;1;0
40277;PMS7003;25990;52.768;16.930;2024-01-16T06:09:12;5;0;0
40277;PMS7003;25990;52.768;16.930;2024-01-16T06:11:34;0;0;0
40277;PMS7003;25990;52.768;16.930;2024-01-16T06:13:56;1;0;0
40277;PMS7003;25990;52.768;16.930;2024-01-16T06:16:21;2;0;0
40277;PMS7003;25990;52.768;16.930;2024-01-16T06:18:43;0;0;0
40277;PMS7003;25990;52.768;16.930;2024-01-16T06:21:06;2;0;0
40277;PMS7003;25990;52.768;16.930;2024-01-16T06:23:28;2;0;0
40277;PMS7003;25990;52.768;16.930;2024-01-16T06:25:50;1;1;1
40277;PMS7003;25990;52.768;16.930;2024-01-16T06:28:13;1;1;0
40277;PMS7003;25990;52.768;16.930;2024-01-16T06:30:35;2;0;0
40277;PMS7003;25990;52.768;16.930;2024-01-16T06:32:58;2;0;0
40277;PMS7003;25990;52.768;16.930;2024-01-16T06:35:20;1;1;1
40277;PMS7003;25990;52.768;16.930;2024-01-16T06:37:43;3;2;1
40277;PMS7003;25990;52.768;16.930;2024-01-16T06:40:08;1;0;0
40277;PMS7003;25990;52.768;16.930;2024-01-16T06:42:27;6;3;2
40277;PMS7003;25990;52.768;16.930;2024-01-16T06:44:49;3;2;1
40277;PMS7003;25990;52.768;16.930;2024-01-16T06:47:12;5;2;2
40277;PMS7003;25990;52.768;16.930;2024-01-16T06:49:34;3;2;1
40277;PMS7003;25990;52.768;16.930;2024-01-16T06:51:56;4;3;1
40277;PMS7003;25990;52.768;16.930;2024-01-16T06:54:19;5;2;2
40277;PMS7003;25990;52.768;16.930;2024-01-16T06:56:41;13;5;3
40277;PMS7003;25990;52.768;16.930;2024-01-16T06:59:03;10;9;6
40277;PMS7003;25990;52.768;16.930;2024-01-16T07:01:26;6;2;2
40277;PMS7003;25990;52.768;16.930;2024-01-16T07:03:48;16;10;7
40277;PMS7003;25990;52.768;16.930;2024-01-16T07:06:11;15;10;6
40277;PMS7003;25990;52.768;16.930;2024-01-16T07:08:33;13;8;5
40277;PMS7003;25990;52.768;16.930;2024-01-16T07:10:56;10;5;4
40277;PMS7003;25990;52.768;16.930;2024-01-16T07:13:18;7;6;4
40277;PMS7003;25990;52.768;16.930;2024-01-16T07:15:40;1;0;0
40277;PMS7003;25990;52.768;16.930;2024-01-16T07:18:02;7;2;1
40277;PMS7003;25990;52.768;16.930;2024-01-16T07:20:25;6;3;2
40277;PMS7003;25990;52.768;16.930;2024-01-16T07:22:47;4;3;2
40277;PMS7003;25990;52.768;16.930;2024-01-16T07:25:09;5;2;2
40277;PMS7003;25990;52.768;16.930;2024-01-16T07:27:32;6;4;2
40277;PMS7003;25990;52.768;16.930;2024-01-16T07:29:54;4;3;2
40277;PMS7003;25990;52.768;16.930;2024-01-16T07:32:16;2;2;2
40277;PMS7003;25990;52.768;16.930;2024-01-16T07:34:41;1;1;1
40277;PMS7003;25990;52.768;16.930;2024-01-16T07:37:04;1;1;1
40277;PMS7003;25990;52.768;16.930;2024-01-16T07:39:26;7;3;1
40277;PMS7003;25990;52.768;16.930;2024-01-16T07:41:49;2;1;0
40277;PMS7003;25990;52.768;16.930;2024-01-16T07:44:11;2;2;1
40277;PMS7003;25990;52.768;16.930;2024-01-16T07:46:33;4;3;1
40277;PMS7003;25990;52.768;16.930;2024-01-16T07:48:56;4;3;2
40277;PMS7003;25990;52.768;16.930;2024-01-16T07:51:18;4;4;4
40277;PMS7003;25990;52.768;16.930;2024-01-16T07:53:40;6;2;1
40277;PMS7003;25990;52.768;16.930;2024-01-16T07:56:03;7;5;4
40277;PMS7003;25990;52.768;16.930;2024-01-16T07:58:25;5;4;3
40277;PMS7003;25990;52.768;16.930;2024-01-16T08:00:48;5;4;3
40277;PMS7003;25990;52.768;16.930;2024-01-16T08:03:10;4;3;2
40277;PMS7003;25990;52.768;16.930;2024-01-16T08:05:32;4;4;2
40277;PMS7003;25990;52.768;16.930;2024-01-16T08:07:55;13;10;8
40277;PMS7003;25990;52.768;16.930;2024-01-16T08:10:17;10;8;6
40277;PMS7003;25990;52.768;16.930;2024-01-16T08:12:40;19;6;4
40277;PMS7003;25990;52.768;16.930;2024-01-16T08:15:02;7;5;3
40277;PMS7003;25990;52.768;16.930;2024-01-16T08:17:24;8;5;4
40277;PMS7003;25990;52.768;16.930;2024-01-16T08:19:46;10;7;5
40277;PMS7003;25990;52.768;16.930;2024-01-16T08:22:09;10;5;4
40277;PMS7003;25990;52.768;16.930;2024-01-16T08:24:31;2;1;0
40277;PMS7003;25990;52.768;16.930;2024-01-16T08:26:54;4;3;2
40277;PMS7003;25990;52.768;16.930;2024-01-16T08:29:16;3;3;2
40277;PMS7003;25990;52.768;16.930;2024-01-16T08:31:38;6;5;3
40277;PMS7003;25990;52.768;16.930;2024-01-16T08:34:01;5;5;4
40277;PMS7003;25990;52.768;16.930;2024-01-16T08:36:23;10;6;3
40277;PMS7003;25990;52.768;16.930;2024-01-16T08:38:45;5;4;2
40277;PMS7003;25990;52.768;16.930;2024-01-16T08:41:08;5;2;2
40277;PMS7003;25990;52.768;16.930;2024-01-16T08:43:30;3;1;0
40277;PMS7003;25990;52.768;16.930;2024-01-16T08:45:53;8;6;4
40277;PMS7003;25990;52.768;16.930;2024-01-16T08:48:15;4;2;2
40277;PMS7003;25990;52.768;16.930;2024-01-16T08:50:37;8;4;2
40277;PMS7003;25990;52.768;16.930;2024-01-16T08:52:59;7;6;5
40277;PMS7003;25990;52.768;16.930;2024-01-16T08:55:21;10;8;4
40277;PMS7003;25990;52.768;16.930;2024-01-16T08:57:44;6;5;4
40277;PMS7003;25990;52.768;16.930;2024-01-16T09:00:07;6;4;2
40277;PMS7003;25990;52.768;16.930;2024-01-16T09:02:29;7;5;4
40277;PMS7003;25990;52.768;16.930;2024-01-16T09:04:51;5;5;4
40277;PMS7003;25990;52.768;16.930;2024-01-16T09:07:13;12;4;3
40277;PMS7003;25990;52.768;16.930;2024-01-16T09:09:36;3;3;3
40277;PMS7003;25990;52.768;16.930;2024-01-16T09:11:58;5;3;3
40277;PMS7003;25990;52.768;16.930;2024-01-16T09:14:21;4;2;2
40277;PMS7003;25990;52.768;16.930;2024-01-16T09:16:43;4;2;2
40277;PMS7003;25990;52.768;16.930;2024-01-16T09:19:06;5;2;2
40277;PMS7003;25990;52.768;16.930;2024-01-16T09:21:28;3;3;1
40277;PMS7003;25990;52.768;16.930;2024-01-16T09:23:50;5;2;2
40277;PMS7003;25990;52.768;16.930;2024-01-16T09:26:13;4;3;2
40277;PMS7003;25990;52.768;16.930;2024-01-16T09:28:35;7;2;2
40277;PMS7003;25990;52.768;16.930;2024-01-16T09:30:57;5;3;3
40277;PMS7003;25990;52.768;16.930;2024-01-16T09:33:20;3;0;0
40277;PMS7003;25990;52.768;16.930;2024-01-16T09:35:42;2;1;1
40277;PMS7003;25990;52.768;16.930;2024-01-16T09:38:07;6;2;1
40277;PMS7003;25990;52.768;16.930;2024-01-16T09:40:29;4;1;1
40277;PMS7003;25990;52.768;16.930;2024-01-16T09:42:52;2;2;1
40277;PMS7003;25990;52.768;16.930;2024-01-16T09:45:15;5;1;1
40277;PMS7003;25990;52.768;16.930;2024-01-16T09:47:37;3;0;0
40277;PMS7003;25990;52.768;16.930;2024-01-16T09:49:59;2;1;0
40277;PMS7003;25990;52.768;16.930;2024-01-16T09:52:21;0;0;0
40277;PMS7003;25990;52.768;16.930;2024-01-16T09:54:43;4;2;2
40277;PMS7003;25990;52.768;16.930;2024-01-16T09:57:06;3;1;0
40277;PMS7003;25990;52.768;16.930;2024-01-16T09:59:28;2;2;1
40277;PMS7003;25990;52.768;16.930;2024-01-16T10:01:51;7;4;3
40277;PMS7003;25990;52.768;16.930;2024-01-16T10:04:13;6;3;2
40277;PMS7003;25990;52.768;16.930;2024-01-16T10:06:35;7;2;1
40277;PMS7003;25990;52.768;16.930;2024-01-16T10:08:57;2;2;2
40277;PMS7003;25990;52.768;16.930;2024-01-16T10:11:20;3;3;3
40277;PMS7003;25990;52.768;16.930;2024-01-16T10:13:43;3;2;0
40277;PMS7003;25990;52.768;16.930;2024-01-16T10:16:05;2;0;0
40277;PMS7003;25990;52.768;16.930;2024-01-16T10:18:28;1;0;0
40277;PMS7003;25990;52.768;16.930;2024-01-16T10:20:49;1;0;0
40277;PMS7003;25990;52.768;16.930;2024-01-16T10:23:11;4;1;1
40277;PMS7003;25990;52.768;16.930;2024-01-16T10:25:34;0;0;0
40277;PMS7003;25990;52.768;16.930;2024-01-16T10:30:21;1;0;0
40277;PMS7003;25990;52.768;16.930;2024-01-16T10:32:41;1;0;0
40277;PMS7003;25990;52.768;16.930;2024-01-16T10:35:09;1;1;1
40277;PMS7003;25990;52.768;16.930;2024-01-16T10:37:25;0;0;0
40277;PMS7003;25990;52.768;16.930;2024-01-16T10:39:50;0;0;0
40277;PMS7003;25990;52.768;16.930;2024-01-16T10:42:10;1;0;0
40277;PMS7003;25990;52.768;16.930;2024-01-16T10:44:32;1;1;0
40277;PMS7003;25990;52.768;16.930;2024-01-16T10:47:09;0;0;0
40277;PMS7003;25990;52.768;16.930;2024-01-16T10:49:17;0;0;0
40277;PMS7003;25990;52.768;16.930;2024-01-16T10:51:39;0;0;0
40277;PMS7003;25990;52.768;16.930;2024-01-16T10:54:04;0;0;0
40277;PMS7003;25990;52.768;16.930;2024-01-16T10:56:25;0;0;0
40277;PMS7003;25990;52.768;16.930;2024-01-16T10:58:46;0;0;0
40277;PMS7003;25990;52.768;16.930;2024-01-16T11:01:10;0;0;0
40277;PMS7003;25990;52.768;16.930;2024-01-16T11:03:52;0;0;0
40277;PMS7003;25990;52.768;16.930;2024-01-16T11:05:53;0;0;0
40277;PMS7003;25990;52.768;16.930;2024-01-16T11:08:15;5;3;1
40277;PMS7003;25990;52.768;16.930;2024-01-16T11:10:38;3;2;1
40277;PMS7003;25990;52.768;16.930;2024-01-16T11:13:01;3;2;1
40277;PMS7003;25990;52.768;16.930;2024-01-16T11:15:22;5;2;1
40277;PMS7003;25990;52.768;16.930;2024-01-16T11:17:45;0;0;0
40277;PMS7003;25990;52.768;16.930;2024-01-16T11:20:08;5;2;0
40277;PMS7003;25990;52.768;16.930;2024-01-16T11:22:29;2;2;0
40277;PMS7003;25990;52.768;16.930;2024-01-16T11:29:36;4;2;1
40277;PMS7003;25990;52.768;16.930;2024-01-16T11:31:59;2;2;2
40277;PMS7003;25990;52.768;16.930;2024-01-16T11:39:06;0;0;0
40277;PMS7003;25990;52.768;16.930;2024-01-16T11:43:50;0;0;0
40277;PMS7003;25990;52.768;16.930;2024-01-16T11:46:13;1;0;0
40277;PMS7003;25990;52.768;16.930;2024-01-16T11:48:35;0;0;0
40277;PMS7003;25990;52.768;16.930;2024-01-16T11:50:57;1;0;0
40277;PMS7003;25990;52.768;16.930;2024-01-16T11:58:16;5;0;0
40277;PMS7003;25990;52.768;16.930;2024-01-16T12:00:27;1;1;0
40277;PMS7003;25990;52.768;16.930;2024-01-16T12:02:51;0;0;0
40277;PMS7003;25990;52.768;16.930;2024-01-16T12:05:11;1;0;0
40277;PMS7003;25990;52.768;16.930;2024-01-16T12:09:59;2;2;1
40277;PMS7003;25990;52.768;16.930;2024-01-16T12:12:18;2;0;0
40277;PMS7003;25990;52.768;16.930;2024-01-16T12:14:46;2;0;0
40277;PMS7003;25990;52.768;16.930;2024-01-16T12:19:27;0;0;0
40277;PMS7003;25990;52.768;16.930;2024-01-16T12:21:48;0;0;0
40277;PMS7003;25990;52.768;16.930;2024-01-16T12:24:10;0;0;0
40277;PMS7003;25990;52.768;16.930;2024-01-16T12:26:32;1;0;0
40277;PMS7003;25990;52.768;16.930;2024-01-16T12:28:55;1;0;0
40277;PMS7003;25990;52.768;16.930;2024-01-16T12:31:20;1;0;0
40277;PMS7003;25990;52.768;16.930;2024-01-16T12:33:39;0;0;0
40277;PMS7003;25990;52.768;16.930;2024-01-16T12:36:02;0;0;0
40277;PMS7003;25990;52.768;16.930;2024-01-16T12:38:24;2;0;0
40277;PMS7003;25990;52.768;16.930;2024-01-16T12:40:47;0;0;0
40277;PMS7003;25990;52.768;16.930;2024-01-16T12:43:08;0;0;0
40277;PMS7003;25990;52.768;16.930;2024-01-16T12:45:31;0;0;0
40277;PMS7003;25990;52.768;16.930;2024-01-16T12:47:53;1;0;0
40277;PMS7003;25990;52.768;16.930;2024-01-16T12:50:19;0;0;0
40277;PMS7003;25990;52.768;16.930;2024-01-16T12:52:38;1;0;0
40277;PMS7003;25990;52.768;16.930;2024-01-16T12:55:00;2;0;0
40277;PMS7003;25990;52.768;16.930;2024-01-16T12:57:22;4;0;0
40277;PMS7003;25990;52.768;16.930;2024-01-16T12:59:45;2;0;0
40277;PMS7003;25990;52.768;16.930;2024-01-16T13:02:07;1;1;0
40277;PMS7003;25990;52.768;16.930;2024-01-16T13:04:29;0;0;0
40277;PMS7003;25990;52.768;16.930;2024-01-16T13:07:00;1;0;0
40277;PMS7003;25990;52.768;16.930;2024-01-16T13:09:14;2;0;0
40277;PMS7003;25990;52.768;16.930;2024-01-16T13:14:02;0;0;0
40277;PMS7003;25990;52.768;16.930;2024-01-16T13:16:21;0;0;0
40277;PMS7003;25990;52.768;16.930;2024-01-16T13:18:44;0;0;0
40277;PMS7003;25990;52.768;16.930;2024-01-16T13:22:37;1;0;0
40277;PMS7003;25990;52.768;16.930;2024-01-16T13:25:00;0;0;0
40277;PMS7003;25990;52.768;16.930;2024-01-16T13:27:22;0;0;0
40277;PMS7003;25990;52.768;16.930;2024-01-16T13:29:44;0;0;0
40277;PMS7003;25990;52.768;16.930;2024-01-16T13:32:07;0;0;0
40277;PMS7003;25990;52.768;16.930;2024-01-16T13:34:29;3;0;0
40277;PMS7003;25990;52.768;16.930;2024-01-16T13:36:51;0;0;0
40277;PMS7003;25990;52.768;16.930;2024-01-16T13:39:14;0;0;0
40277;PMS7003;25990;52.768;16.930;2024-01-16T13:41:36;0;0;0
40277;PMS7003;25990;52.768;16.930;2024-01-16T13:43:58;0;0;0
40277;PMS7003;25990;52.768;16.930;2024-01-16T13:46:20;0;0;0
40277;PMS7003;25990;52.768;16.930;2024-01-16T13:48:43;0;0;0
40277;PMS7003;25990;52.768;16.930;2024-01-16T13:51:05;0;0;0
40277;PMS7003;25990;52.768;16.930;2024-01-16T13:53:27;0;0;0
40277;PMS7003;25990;52.768;16.930;2024-01-16T13:55:50;0;0;0
40277;PMS7003;25990;52.768;16.930;2024-01-16T13:58:12;1;0;0
40277;PMS7003;25990;52.768;16.930;2024-01-16T14:00:34;1;0;0
40277;PMS7003;25990;52.768;16.930;2024-01-16T14:02:56;0;0;0
40277;PMS7003;25990;52.768;16.930;2024-01-16T14:05:19;0;0;0
40277;PMS7003;25990;52.768;16.930;2024-01-16T14:07:41;0;0;0
40277;PMS7003;25990;52.768;16.930;2024-01-16T14:10:05;0;0;0
40277;PMS7003;25990;52.768;16.930;2024-01-16T14:12:26;0;0;0
40277;PMS7003;25990;52.768;16.930;2024-01-16T14:14:48;0;0;0
40277;PMS7003;25990;52.768;16.930;2024-01-16T14:17:11;0;0;0
40277;PMS7003;25990;52.768;16.930;2024-01-16T14:19:36;0;0;0
40277;PMS7003;25990;52.768;16.930;2024-01-16T14:21:56;0;0;0
40277;PMS7003;25990;52.768;16.930;2024-01-16T14:24:18;2;0;0
40277;PMS7003;25990;52.768;16.930;2024-01-16T14:26:43;0;0;0
40277;PMS7003;25990;52.768;16.930;2024-01-16T14:29:02;3;1;0
40277;PMS7003;25990;52.768;16.930;2024-01-16T14:31:25;3;0;0
40277;PMS7003;25990;52.768;16.930;2024-01-16T14:33:47;1;0;0
40277;PMS7003;25990;52.768;16.930;2024-01-16T14:36:09;2;0;0
40277;PMS7003;25990;52.768;16.930;2024-01-16T14:38:32;2;2;1
40277;PMS7003;25990;52.768;16.930;2024-01-16T14:40:54;4;0;0
40277;PMS7003;25990;52.768;16.930;2024-01-16T14:43:17;0;0;0
40277;PMS7003;25990;52.768;16.930;2024-01-16T14:45:39;2;2;0
40277;PMS7003;25990;52.768;16.930;2024-01-16T14:48:01;2;2;1
40277;PMS7003;25990;52.768;16.930;2024-01-16T14:50:24;3;0;0
40277;PMS7003;25990;52.768;16.930;2024-01-16T14:52:46;6;2;2
40277;PMS7003;25990;52.768;16.930;2024-01-16T14:55:08;2;2;1
40277;PMS7003;25990;52.768;16.930;2024-01-16T14:57:31;10;9;6
40277;PMS7003;25990;52.768;16.930;2024-01-16T14:59:53;10;6;3
40277;PMS7003;25990;52.768;16.930;2024-01-16T15:02:15;2;2;2
40277;PMS7003;25990;52.768;16.930;2024-01-16T15:04:39;2;2;2
40277;PMS7003;25990;52.768;16.930;2024-01-16T15:07:00;4;2;1
40277;PMS7003;25990;52.768;16.930;2024-01-16T15:09:22;6;3;2
40277;PMS7003;25990;52.768;16.930;2024-01-16T15:11:45;5;3;3
40277;PMS7003;25990;52.768;16.930;2024-01-16T15:14:07;3;2;1
40277;PMS7003;25990;52.768;16.930;2024-01-16T15:16:30;5;3;2
40277;PMS7003;25990;52.768;16.930;2024-01-16T15:18:52;3;3;1
40277;PMS7003;25990;52.768;16.930;2024-01-16T15:21:14;5;3;3
40277;PMS7003;25990;52.768;16.930;2024-01-16T15:23:37;6;3;2
40277;PMS7003;25990;52.768;16.930;2024-01-16T15:25:59;6;3;2
40277;PMS7003;25990;52.768;16.930;2024-01-16T15:28:21;6;3;2
40277;PMS7003;25990;52.768;16.930;2024-01-16T15:30:44;5;2;2
40277;PMS7003;25990;52.768;16.930;2024-01-16T15:33:06;3;1;1
40277;PMS7003;25990;52.768;16.930;2024-01-16T15:35:29;6;1;1
40277;PMS7003;25990;52.768;16.930;2024-01-16T15:37:51;2;1;0
40277;PMS7003;25990;52.768;16.930;2024-01-16T15:40:13;2;2;1
40277;PMS7003;25990;52.768;16.930;2024-01-16T15:42:36;6;3;2
40277;PMS7003;25990;52.768;16.930;2024-01-16T15:44:58;4;2;1
40277;PMS7003;25990;52.768;16.930;2024-01-16T15:47:20;2;2;1
40277;PMS7003;25990;52.768;16.930;2024-01-16T15:49:43;10;4;4
40277;PMS7003;25990;52.768;16.930;2024-01-16T15:52:05;9;4;3
40277;PMS7003;25990;52.768;16.930;2024-01-16T15:54:28;14;9;7
40277;PMS7003;25990;52.768;16.930;2024-01-16T15:56:50;11;9;8
40277;PMS7003;25990;52.768;16.930;2024-01-16T15:59:12;10;8;6
40277;PMS7003;25990;52.768;16.930;2024-01-16T16:01:36;16;13;10
40277;PMS7003;25990;52.768;16.930;2024-01-16T16:03:57;15;12;7
40277;PMS7003;25990;52.768;16.930;2024-01-16T16:06:19;12;9;7
40277;PMS7003;25990;52.768;16.930;2024-01-16T16:08:42;12;7;4
40277;PMS7003;25990;52.768;16.930;2024-01-16T16:11:04;13;10;7
40277;PMS7003;25990;52.768;16.930;2024-01-16T16:13:26;9;8;6